Time;durP1;ratioP1;P1;durP2;ratioP2;P2;SDS_P1;SDS_P2;PMS_P1;PMS_P2;Temp;Humidity;BMP_temperature;BMP_pressure;BME280_temperature;BME280_humidity;BME280_pressure;Samples;Min_cycle;Max_cycle;Signal;HPM_P1;HPM_P2
2021/05/21 00:02:01;;;;;;;1.10;1.00;;;;;;;9.49;70.61;99639.50;5003123;28;20227;-79
2021/05/21 00:04:28;;;;;;;1.00;0.90;;;;;;;9.44;70.86;99642.81;5034833;28;20226;-79
2021/05/21 00:06:54;;;;;;;1.10;1.00;;;;;;;9.29;71.53;99626.19;5019660;28;20520;-78
2021/05/21 00:09:22;;;;;;;1.50;1.00;;;;;;;9.30;71.31;99633.19;5035153;28;20225;-79
2021/05/21 00:11:49;;;;;;;1.47;1.00;;;;;;;9.31;71.21;99634.03;5035362;28;20233;-79
2021/05/21 00:14:15;;;;;;;1.23;0.97;;;;;;;9.32;71.43;99639.16;5026885;28;20230;-79
2021/05/21 00:16:42;;;;;;;1.57;1.00;;;;;;;9.29;71.65;99631.53;5004771;28;20238;-79
2021/05/21 00:19:09;;;;;;;2.60;0.90;;;;;;;9.09;72.43;99610.25;5009256;28;20285;-78
2021/05/21 00:21:36;;;;;;;1.10;1.00;;;;;;;9.17;72.68;99627.91;5028078;28;20542;-79
2021/05/21 00:24:03;;;;;;;2.53;0.73;;;;;;;9.11;72.89;99618.03;5012938;28;20530;-78
2021/05/21 00:26:30;;;;;;;1.00;0.80;;;;;;;9.07;72.96;99614.97;4998858;28;20227;-79
2021/05/21 00:28:58;;;;;;;0.70;0.70;;;;;;;9.03;72.72;99616.44;5015125;28;20305;-79
2021/05/21 00:31:25;;;;;;;1.00;0.63;;;;;;;9.07;72.80;99624.84;5015117;28;20234;-78
2021/05/21 00:33:51;;;;;;;1.20;0.80;;;;;;;9.12;72.63;99625.03;4999001;28;20231;-78
2021/05/21 00:36:18;;;;;;;0.50;0.50;;;;;;;9.07;72.13;99614.16;5014683;28;20592;-79
2021/05/21 00:38:45;;;;;;;1.77;0.70;;;;;;;9.09;71.97;99623.63;4998841;28;20234;-78
2021/05/21 00:41:12;;;;;;;1.10;0.70;;;;;;;9.14;72.08;99629.16;5015254;28;20280;-78
2021/05/21 00:43:38;;;;;;;0.60;0.60;;;;;;;9.11;72.10;99618.88;5015268;28;20288;-79
2021/05/21 00:46:05;;;;;;;0.50;0.50;;;;;;;9.14;71.92;99614.97;4999003;28;20630;-79
2021/05/21 00:48:32;;;;;;;1.20;0.70;;;;;;;9.13;72.06;99605.28;5014163;28;20233;-78
2021/05/21 00:50:59;;;;;;;1.80;0.93;;;;;;;9.08;72.00;99613.94;5004052;28;20293;-79
2021/05/21 00:53:29;;;;;;;0.73;0.70;;;;;;;9.08;72.07;99618.47;5010442;28;20285;-79
2021/05/21 00:55:59;;;;;;;2.03;0.60;;;;;;;9.07;72.16;99608.81;4991229;28;20227;-79
2021/05/21 00:58:27;;;;;;;0.77;0.77;;;;;;;9.01;72.80;99601.63;5011133;28;20231;-78
2021/05/21 01:00:55;;;;;;;1.40;0.80;;;;;;;8.96;72.44;99596.09;4994748;28;20606;-79
2021/05/21 01:03:22;;;;;;;1.00;0.70;;;;;;;9.07;71.74;99614.16;5011192;28;20246;-78
2021/05/21 01:05:49;;;;;;;1.63;1.13;;;;;;;9.01;72.07;99612.31;5008085;28;20233;-78
2021/05/21 01:08:17;;;;;;;1.07;0.60;;;;;;;9.02;71.74;99603.25;5014275;28;20233;-79
2021/05/21 01:11:05;;;;;;;1.90;0.80;;;;;;;9.04;71.30;99603.88;5014582;28;20243;-78
2021/05/21 01:13:33;;;;;;;0.80;0.80;;;;;;;9.02;71.57;99598.75;4998623;28;20249;-79
2021/05/21 01:16:00;;;;;;;2.13;0.87;;;;;;;9.01;70.99;99591.75;5000914;28;20635;-78
2021/05/21 01:18:27;;;;;;;1.03;0.90;;;;;;;9.09;71.20;99606.75;5014666;28;20237;-80
2021/05/21 01:20:54;;;;;;;1.00;0.90;;;;;;;9.02;71.19;99600.59;5010565;28;20245;-78
2021/05/21 01:23:21;;;;;;;1.27;0.83;;;;;;;8.96;71.01;99601.44;5017983;28;20308;-79
2021/05/21 01:25:48;;;;;;;1.43;0.90;;;;;;;8.89;71.37;99587.28;5023410;28;20646;-78
2021/05/21 01:28:17;;;;;;;0.73;0.70;;;;;;;8.84;71.41;99602.09;4998120;28;20234;-79
2021/05/21 01:30:44;;;;;;;1.33;0.80;;;;;;;8.81;71.61;99597.16;5007975;28;20242;-78
2021/05/21 01:33:12;;;;;;;2.90;0.80;;;;;;;8.80;71.82;99603.53;5018276;28;20226;-79
2021/05/21 01:35:40;;;;;;;0.80;0.70;;;;;;;8.73;71.66;99586.69;5009691;28;20226;-79
2021/05/21 01:38:07;;;;;;;1.00;0.63;;;;;;;8.78;71.64;99594.06;5014627;28;20226;-79
2021/05/21 01:40:36;;;;;;;0.80;0.80;;;;;;;8.68;71.51;99578.47;5021125;28;20687;-78
2021/05/21 01:43:03;;;;;;;0.80;0.60;;;;;;;8.65;71.82;99581.56;5034241;28;20230;-78
2021/05/21 01:45:30;;;;;;;0.77;0.70;;;;;;;8.64;71.32;99581.78;5011875;28;20226;-78
2021/05/21 01:47:58;;;;;;;1.03;0.73;;;;;;;8.60;71.42;99567.19;4998263;28;20261;-79
2021/05/21 01:50:25;;;;;;;0.63;0.63;;;;;;;8.61;71.80;99569.66;5001829;28;20237;-79
2021/05/21 01:52:52;;;;;;;0.70;0.70;;;;;;;8.63;71.32;99564.91;5034185;28;20648;-79
2021/05/21 01:55:18;;;;;;;0.80;0.80;;;;;;;8.60;71.30;99553.84;5014813;28;20230;-78
2021/05/21 01:57:45;;;;;;;1.20;0.80;;;;;;;8.52;71.33;99544.22;5014445;28;20231;-79
2021/05/21 02:00:12;;;;;;;2.07;0.90;;;;;;;8.51;71.48;99545.22;4998763;28;20281;-79
2021/05/21 02:02:41;;;;;;;0.77;0.70;;;;;;;8.46;71.18;99536.19;5033693;28;20237;-79
2021/05/21 02:05:09;;;;;;;1.23;0.80;;;;;;;8.51;71.04;99553.25;5017593;28;20236;-79
2021/05/21 02:07:36;;;;;;;1.37;0.90;;;;;;;8.46;71.37;99547.72;4997823;28;20227;-78
2021/05/21 02:10:07;;;;;;;1.37;0.93;;;;;;;8.49;71.46;99549.94;5013843;28;20803;-78
2021/05/21 02:12:35;;;;;;;1.90;0.90;;;;;;;8.47;70.76;99548.53;5033245;28;20234;-78
2021/05/21 02:15:07;;;;;;;2.23;0.93;;;;;;;8.43;71.09;99540.13;5017599;28;20226;-79
2021/05/21 02:17:34;;;;;;;1.33;0.80;;;;;;;8.42;70.62;99541.16;5033837;28;20585;-81
2021/05/21 02:20:03;;;;;;;1.17;1.07;;;;;;;8.41;70.79;99536.81;5033458;28;20317;-80
2021/05/21 02:22:30;;;;;;;2.30;1.00;;;;;;;8.43;70.23;99542.78;5016562;28;20226;-81
2021/05/21 02:24:59;;;;;;;0.80;0.80;;;;;;;8.41;70.60;99534.16;5014353;28;20325;-81
2021/05/21 02:27:27;;;;;;;2.57;1.03;;;;;;;8.36;70.11;99534.78;5029842;28;20246;-80
2021/05/21 02:29:54;;;;;;;0.93;0.87;;;;;;;8.36;69.97;99525.94;5017647;28;20654;-81
2021/05/21 02:32:21;;;;;;;1.87;0.80;;;;;;;8.35;70.05;99530.47;5018655;28;20296;-81
2021/05/21 02:34:48;;;;;;;0.80;0.80;;;;;;;8.34;69.24;99520.00;5014149;28;20639;-81
2021/05/21 02:37:15;;;;;;;0.73;0.70;;;;;;;8.44;69.54;99540.94;5010437;28;20230;-80
2021/05/21 02:39:41;;;;;;;0.60;0.60;;;;;;;8.40;69.43;99524.50;5017642;28;20279;-81
2021/05/21 02:42:08;;;;;;;1.40;0.73;;;;;;;8.40;69.68;99524.50;5021492;28;20576;-81
2021/05/21 02:44:35;;;;;;;2.40;0.80;;;;;;;8.39;69.40;99533.56;5013964;28;20226;-80
2021/05/21 02:47:02;;;;;;;1.20;0.90;;;;;;;8.40;68.94;99527.16;5026219;28;20229;-81
2021/05/21 02:49:31;;;;;;;1.43;0.97;;;;;;;8.39;69.26;99517.53;5020513;28;20333;-81
2021/05/21 02:51:58;;;;;;;0.70;0.70;;;;;;;8.40;69.05;99519.97;5028894;28;20657;-80
2021/05/21 02:54:24;;;;;;;0.90;0.77;;;;;;;8.36;68.98;99508.09;5017034;28;20235;-80
2021/05/21 02:56:51;;;;;;;1.03;0.80;;;;;;;8.38;69.35;99510.56;5024236;28;20272;-81
2021/05/21 02:59:18;;;;;;;0.80;0.80;;;;;;;8.28;69.42;99494.09;5037044;28;20237;-81
2021/05/21 03:01:45;;;;;;;0.70;0.70;;;;;;;8.30;69.59;99500.94;5031006;28;20277;-81
2021/05/21 03:04:12;;;;;;;0.83;0.70;;;;;;;8.24;69.54;99495.56;5000293;28;20576;-81
2021/05/21 03:06:38;;;;;;;0.70;0.70;;;;;;;8.26;69.61;99510.31;5021783;28;20229;-78
2021/05/21 03:09:05;;;;;;;1.53;0.90;;;;;;;8.39;69.02;99509.53;5036717;28;20284;-80
2021/05/21 03:11:32;;;;;;;1.07;0.67;;;;;;;8.38;68.93;99511.38;5017448;28;20280;-80
2021/05/21 03:13:59;;;;;;;0.80;0.60;;;;;;;8.47;67.90;99500.47;4984481;28;20630;-81
2021/05/21 03:16:25;;;;;;;0.60;0.60;;;;;;;8.54;67.90;99495.94;5017082;28;20232;-81
2021/05/21 03:18:52;;;;;;;0.80;0.73;;;;;;;8.54;68.16;99491.41;5034261;28;20549;-80
2021/05/21 03:21:19;;;;;;;2.00;0.70;;;;;;;8.57;67.93;99491.00;5019669;28;20226;-81
2021/05/21 03:23:46;;;;;;;0.90;0.77;;;;;;;8.62;67.64;99490.38;4999673;28;20230;-82
2021/05/21 03:26:13;;;;;;;0.97;0.80;;;;;;;8.57;67.53;99482.16;4998159;28;20236;-81
2021/05/21 03:28:40;;;;;;;1.10;0.80;;;;;;;8.72;67.29;99491.56;5016740;28;20234;-81
2021/05/21 03:31:08;;;;;;;1.50;0.73;;;;;;;8.77;67.33;99482.94;5019900;28;20222;-81
2021/05/21 03:33:36;;;;;;;1.73;0.80;;;;;;;8.79;67.19;99481.66;5019476;28;20324;-81
2021/05/21 03:36:04;;;;;;;0.80;0.80;;;;;;;8.88;67.03;99484.91;5017315;28;20234;-81
2021/05/21 03:38:31;;;;;;;0.90;0.60;;;;;;;9.00;66.96;99496.59;5015626;28;20617;-81
2021/05/21 03:40:58;;;;;;;0.80;0.77;;;;;;;9.04;66.92;99492.47;5019744;28;20230;-78
2021/05/21 03:43:25;;;;;;;1.50;0.70;;;;;;;9.18;66.72;99494.03;5022280;28;20289;-80
2021/05/21 03:45:52;;;;;;;0.97;0.67;;;;;;;9.30;65.64;99494.16;5000139;28;20226;-80
2021/05/21 03:48:19;;;;;;;0.70;0.70;;;;;;;9.39;65.28;99497.41;5029730;28;20272;-80
2021/05/21 03:50:45;;;;;;;1.40;0.60;;;;;;;9.51;64.77;99493.03;5019274;28;20238;-80
2021/05/21 03:53:14;;;;;;;1.63;0.73;;;;;;;9.53;64.45;99472.22;5026211;28;20238;-80
2021/05/21 03:55:41;;;;;;;0.60;0.60;;;;;;;9.77;63.47;99475.94;4999847;28;20677;-80
2021/05/21 03:58:09;;;;;;;0.90;0.60;;;;;;;10.09;63.11;99491.75;5025946;28;20696;-81
2021/05/21 04:00:36;;;;;;;0.93;0.80;;;;;;;10.18;62.66;99484.28;5019625;28;20536;-80
2021/05/21 04:03:05;;;;;;;1.17;0.77;;;;;;;10.29;62.19;99482.72;5011076;28;20226;-80
2021/05/21 04:05:32;;;;;;;0.80;0.70;;;;;;;10.32;61.77;99472.38;5015695;28;20297;-81
2021/05/21 04:08:00;;;;;;;1.23;0.70;;;;;;;10.44;61.28;99470.63;5006074;28;20228;-80
2021/05/21 04:10:27;;;;;;;1.10;0.80;;;;;;;10.53;61.35;99469.28;5035040;28;20513;-81
2021/05/21 04:12:53;;;;;;;1.10;0.80;;;;;;;10.60;60.65;99458.50;5029519;28;20516;-81
2021/05/21 04:15:20;;;;;;;2.50;0.80;;;;;;;10.78;60.56;99484.47;4999494;28;20313;-80
2021/05/21 04:17:47;;;;;;;0.80;0.73;;;;;;;10.76;60.31;99487.38;5002935;28;20230;-81
2021/05/21 04:20:14;;;;;;;1.10;0.83;;;;;;;10.85;60.33;99488.72;5018728;28;20576;-80
2021/05/21 04:22:41;;;;;;;1.83;0.80;;;;;;;10.86;60.52;99492.22;5016419;28;20229;-80
2021/05/21 04:25:08;;;;;;;25.63;16.33;;;;;;;10.97;60.83;99494.13;4999042;28;20284;-80
2021/05/21 04:27:35;;;;;;;6.43;4.13;;;;;;;10.90;60.47;99477.31;5016118;28;20234;-77
2021/05/21 04:30:03;;;;;;;1.13;1.03;;;;;;;10.99;60.25;99484.00;5018080;28;20221;-78
2021/05/21 04:32:30;;;;;;;1.17;1.13;;;;;;;11.00;61.01;99474.91;5018457;28;20536;-78
2021/05/21 04:34:57;;;;;;;2.53;0.90;;;;;;;11.10;60.28;99471.69;4998630;28;20631;-80
2021/05/21 04:37:24;;;;;;;1.60;1.10;;;;;;;11.16;60.15;99476.13;5015072;28;20285;-78
2021/05/21 04:39:51;;;;;;;2.30;1.00;;;;;;;11.26;59.90;99477.25;5039145;28;20229;-78
2021/05/21 04:42:38;;;;;;;2.93;1.10;;;;;;;11.29;59.64;99460.69;5021012;28;20300;-78
2021/05/21 04:45:06;;;;;;;2.00;0.93;;;;;;;11.46;59.53;99472.41;4999074;28;20277;-78
2021/05/21 04:47:34;;;;;;;0.97;0.87;;;;;;;11.43;59.21;99469.38;4998728;28;20306;-78
2021/05/21 04:50:01;;;;;;;1.30;1.07;;;;;;;11.42;59.42;99473.09;5032332;28;20237;-77
2021/05/21 04:52:27;;;;;;;1.40;1.00;;;;;;;11.40;59.83;99453.72;5018032;28;20229;-78
2021/05/21 04:54:55;;;;;;;0.93;0.90;;;;;;;11.47;59.60;99463.34;5001886;28;20572;-78
2021/05/21 04:57:21;;;;;;;1.63;1.20;;;;;;;11.53;59.16;99458.88;5014577;28;20280;-80
2021/05/21 04:59:48;;;;;;;1.63;1.00;;;;;;;11.59;59.00;99463.34;5029434;28;20241;-77
2021/05/21 05:02:15;;;;;;;1.13;0.90;;;;;;;11.71;58.70;99466.84;5017236;28;20245;-78
2021/05/21 05:04:42;;;;;;;2.33;1.20;;;;;;;11.82;58.55;99460.72;5021822;28;20573;-78
2021/05/21 05:07:09;;;;;;;3.80;1.30;;;;;;;11.88;58.07;99454.44;5014366;28;20702;-78
2021/05/21 05:09:35;;;;;;;1.40;1.17;;;;;;;12.14;57.85;99460.41;5026209;28;20526;-80
2021/05/21 05:12:03;;;;;;;16.20;1.83;;;;;;;12.26;57.42;99454.00;5017475;28;20237;-77
2021/05/21 05:14:30;;;;;;;3.57;1.40;;;;;;;12.46;56.84;99460.88;5007530;28;20223;-79
2021/05/21 05:16:57;;;;;;;7.00;1.30;;;;;;;12.64;55.93;99463.41;4998048;28;20234;-80
2021/05/21 05:19:24;;;;;;;6.67;1.30;;;;;;;12.74;55.76;99450.16;5022950;28;20229;-78
2021/05/21 05:21:51;;;;;;;6.10;1.43;;;;;;;13.01;54.32;99442.38;5034191;28;20226;-77
2021/05/21 05:24:19;;;;;;;14.30;2.03;;;;;;;13.22;54.26;99434.47;5026369;28;20226;-77
2021/05/21 05:26:46;;;;;;;5.17;1.80;;;;;;;13.41;53.17;99436.94;4997839;28;20227;-78
2021/05/21 05:29:14;;;;;;;7.63;1.93;;;;;;;13.60;53.19;99414.13;5020171;28;20229;-78
2021/05/21 05:31:46;;;;;;;14.63;1.90;;;;;;;13.79;53.17;99417.41;5017502;28;20226;-77
2021/05/21 05:34:14;;;;;;;4.03;1.20;;;;;;;13.87;52.97;99412.41;5012154;28;20222;-78
2021/05/21 05:36:42;;;;;;;6.10;1.40;;;;;;;13.97;52.26;99407.19;4997508;28;20261;-78
2021/05/21 05:39:09;;;;;;;4.70;1.30;;;;;;;14.20;52.09;99408.03;5001888;28;20217;-77
2021/05/21 05:41:36;;;;;;;2.33;1.37;;;;;;;14.38;51.26;99415.84;5017138;28;20238;-78
2021/05/21 05:44:03;;;;;;;2.53;1.10;;;;;;;14.42;50.95;99393.53;5033365;28;20512;-77
2021/05/21 05:46:30;;;;;;;1.33;1.17;;;;;;;14.56;50.48;99393.19;5034834;28;20218;-78
2021/05/21 05:48:57;;;;;;;1.60;1.17;;;;;;;14.78;50.74;99396.69;5032645;28;20230;-77
2021/05/21 05:51:24;;;;;;;4.03;1.33;;;;;;;14.86;50.59;99380.06;5013959;28;20632;-78
2021/05/21 05:53:50;;;;;;;1.97;1.30;;;;;;;15.08;50.29;99372.72;4997790;28;20227;-77
2021/05/21 05:56:17;;;;;;;1.80;1.00;;;;;;;15.11;49.44;99372.22;5016709;28;20237;-77
2021/05/21 05:58:44;;;;;;;4.33;1.63;;;;;;;15.36;50.06;99380.56;5017027;28;20229;-78
2021/05/21 06:01:11;;;;;;;13.70;1.83;;;;;;;15.57;49.84;99378.06;4999343;28;20231;-78
2021/05/21 06:03:37;;;;;;;9.67;1.10;;;;;;;15.74;49.02;99368.75;4997406;28;20266;-78
2021/05/21 06:06:05;;;;;;;7.10;1.40;;;;;;;15.88;48.48;99376.38;4996940;28;20237;-78
2021/05/21 06:08:51;;;;;;;5.10;0.90;;;;;;;16.13;47.95;99363.88;5020139;28;20307;-79
2021/05/21 06:11:19;;;;;;;1.77;0.60;;;;;;;16.39;47.29;99369.38;5016975;28;20225;-80
2021/05/21 06:13:45;;;;;;;1.30;0.70;;;;;;;16.51;47.45;99365.41;4997545;28;20264;-80
2021/05/21 06:16:12;;;;;;;2.00;0.60;;;;;;;16.75;44.92;99362.25;5011135;28;20238;-79
2021/05/21 06:18:40;;;;;;;0.80;0.50;;;;;;;16.86;43.42;99353.06;5014224;28;20274;-79
2021/05/21 06:21:08;;;;;;;2.90;0.60;;;;;;;17.08;43.98;99361.78;5018733;28;20312;-78
2021/05/21 06:23:37;;;;;;;10.57;1.33;;;;;;;17.12;44.19;99357.47;5018256;28;20240;-90
2021/05/21 06:28:43;;;;;;;7.43;1.10;;;;;;;17.59;43.75;99349.09;5037611;28;20251;-83
2021/05/21 06:31:10;;;;;;;4.37;0.80;;;;;;;17.73;42.83;99339.34;5024205;28;20234;-88
2021/05/21 06:33:38;;;;;;;9.90;1.50;;;;;;;17.93;42.80;99346.63;5023560;28;20251;-87
2021/05/21 06:36:05;;;;;;;2.37;0.80;;;;;;;17.98;40.68;99333.06;5036049;28;20226;-92
2021/05/21 06:38:31;;;;;;;1.50;0.60;;;;;;;18.19;40.36;99337.38;5036530;28;20226;-85
2021/05/21 06:40:58;;;;;;;3.43;0.90;;;;;;;18.39;40.48;99341.88;5009711;28;20626;-83
2021/05/21 06:43:28;;;;;;;6.10;1.10;;;;;;;18.43;39.91;99326.66;5030762;28;20351;-90
2021/05/21 06:45:55;;;;;;;3.43;0.70;;;;;;;18.61;39.46;99331.53;5021834;28;20226;-90
2021/05/21 06:48:26;;;;;;;3.77;0.80;;;;;;;18.68;39.34;99331.22;5046753;28;20242;-91
2021/05/21 06:50:52;;;;;;;2.97;0.80;;;;;;;18.73;37.51;99318.44;5040193;28;20218;-88
2021/05/21 06:53:21;;;;;;;1.70;0.63;;;;;;;18.90;37.99;99308.00;5021782;28;20235;-91
2021/05/21 06:55:51;;;;;;;4.10;0.90;;;;;;;19.03;37.98;99313.91;5028427;28;20252;-88
2021/05/21 06:58:19;;;;;;;2.87;0.60;;;;;;;19.20;38.20;99312.41;5036400;28;20660;-88
2021/05/21 07:00:47;;;;;;;3.27;0.80;;;;;;;19.35;37.64;99315.00;5020410;28;20642;-91
2021/05/21 07:03:15;;;;;;;6.63;1.00;;;;;;;19.22;38.38;99307.50;5036687;28;20238;-90
2021/05/21 07:05:45;;;;;;;26.20;1.73;;;;;;;19.38;37.92;99300.03;5036558;28;20321;-87
2021/05/21 07:08:13;;;;;;;1.40;0.60;;;;;;;19.42;37.79;99287.50;5019423;28;20230;-90
2021/05/21 07:10:40;;;;;;;4.00;0.50;;;;;;;19.50;37.97;99286.13;5030553;28;20583;-86
2021/05/21 07:13:08;;;;;;;3.20;0.80;;;;;;;19.65;37.59;99292.19;5015166;28;20284;-83
2021/05/21 07:15:35;;;;;;;1.50;0.50;;;;;;;19.84;36.57;99283.31;5002536;28;20226;-91
2021/05/21 07:18:03;;;;;;;1.83;0.60;;;;;;;19.88;36.79;99290.59;5019182;28;20226;-91
2021/05/21 07:20:29;;;;;;;2.30;0.57;;;;;;;19.96;36.69;99268.25;5036703;28;20284;-88
2021/05/21 07:22:56;;;;;;;1.07;0.60;;;;;;;20.00;36.94;99274.72;5019941;28;20589;-83
2021/05/21 07:25:24;;;;;;;1.50;0.40;;;;;;;19.98;36.80;99266.03;5019631;28;20234;-90
2021/05/21 07:27:50;;;;;;;3.80;0.80;;;;;;;20.11;37.40;99265.31;4999928;28;20234;-91
2021/05/21 07:30:18;;;;;;;8.13;0.70;;;;;;;20.13;36.96;99265.03;5032290;28;20257;-90
2021/05/21 07:32:45;;;;;;;2.20;0.63;;;;;;;20.24;36.61;99252.94;5014823;28;20230;-88
2021/05/21 07:35:12;;;;;;;8.97;0.80;;;;;;;20.38;36.72;99253.06;4998948;28;20514;-83
2021/05/21 07:37:39;;;;;;;11.20;1.07;;;;;;;20.47;36.02;99249.41;5018160;28;20604;-88
2021/05/21 07:40:07;;;;;;;1.83;0.60;;;;;;;20.61;36.26;99244.03;5018013;28;20661;-80
2021/05/21 07:42:34;;;;;;;5.23;0.90;;;;;;;20.63;35.64;99239.09;5018402;28;20226;-91
2021/05/21 07:45:02;;;;;;;2.43;0.40;;;;;;;20.63;35.64;99222.75;5034570;28;20234;-90
2021/05/21 07:47:29;;;;;;;7.63;0.87;;;;;;;20.75;36.31;99223.13;5004542;28;20235;-89
2021/05/21 07:49:56;;;;;;;7.27;0.80;;;;;;;20.82;35.70;99215.38;5032112;28;20252;-89
2021/05/21 07:52:23;;;;;;;16.83;1.20;;;;;;;21.01;35.42;99215.34;5035795;28;20227;-90
2021/05/21 07:54:49;;;;;;;16.43;1.20;;;;;;;21.12;35.26;99219.53;5035617;28;20258;-83
2021/05/21 07:57:17;;;;;;;4.17;0.80;;;;;;;21.23;34.99;99225.66;5024166;28;20229;-89
2021/05/21 07:59:43;;;;;;;72.23;3.57;;;;;;;21.18;34.63;99214.84;5015664;28;20313;-90
2021/05/21 08:02:11;;;;;;;8.50;1.30;;;;;;;21.34;34.73;99217.00;5009137;28;20211;-86
2021/05/21 08:04:37;;;;;;;12.50;1.40;;;;;;;21.36;32.65;99203.88;5034950;28;20235;-90
2021/05/21 08:07:04;;;;;;;10.23;2.00;;;;;;;21.41;32.42;99202.97;5028202;28;20252;-90
2021/05/21 08:09:36;;;;;;;21.70;1.90;;;;;;;21.51;31.73;99203.56;5015223;28;20237;-89
2021/05/21 08:12:04;;;;;;;5.70;0.70;;;;;;;21.65;32.17;99194.63;5021939;28;20218;-88
2021/05/21 08:14:31;;;;;;;5.73;0.90;;;;;;;21.66;31.06;99201.66;5034991;28;20694;-87
2021/05/21 08:16:58;;;;;;;0.90;0.50;;;;;;;21.80;31.20;99194.31;5028578;28;20235;-87
2021/05/21 08:19:41;;;;;;;2.53;0.90;;;;;;;22.12;31.25;99190.66;5015479;28;20572;-92
2021/05/21 08:22:09;;;;;;;2.63;0.80;;;;;;;22.54;30.58;99179.34;5021261;28;20214;-91
2021/05/21 08:24:35;;;;;;;0.50;0.50;;;;;;;22.96;29.91;99178.06;5034696;28;20313;-90
2021/05/21 08:27:02;;;;;;;1.83;0.50;;;;;;;23.41;28.36;99167.88;5034384;28;20223;-85
2021/05/21 08:29:29;;;;;;;2.83;0.60;;;;;;;23.83;28.36;99171.13;5034772;28;20265;-91
2021/05/21 08:32:01;;;;;;;2.97;0.43;;;;;;;24.31;27.42;99171.88;5034463;28;20220;-91
2021/05/21 08:34:28;;;;;;;0.63;0.47;;;;;;;24.70;26.37;99161.91;5034080;28;20228;-79
2021/05/21 08:36:55;;;;;;;3.60;0.80;;;;;;;24.95;26.47;99169.31;5031906;28;20704;-89
2021/05/21 08:39:22;;;;;;;2.38;0.60;;;;;;;24.84;25.92;99163.34;5014815;28;20325;-91
2021/05/21 08:41:53;;;;;;;0.73;0.60;;;;;;;24.77;26.58;99159.50;5015955;28;20222;-92
2021/05/21 08:44:21;;;;;;;42.55;2.60;;;;;;;24.66;27.61;99161.75;5033361;28;20229;-91
2021/05/21 08:46:48;;;;;;;7.03;0.77;;;;;;;24.54;27.72;99154.16;5017547;28;20668;-79
2021/05/21 08:49:16;;;;;;;4.38;0.60;;;;;;;24.51;27.73;99157.56;5023190;28;20280;-90
2021/05/21 08:51:43;;;;;;;7.10;0.60;;;;;;;24.43;27.93;99152.09;5017687;28;20226;-91
2021/05/21 08:54:29;;;;;;;1.75;0.60;;;;;;;24.08;27.43;99141.06;4997772;28;20234;-90
2021/05/21 08:56:56;;;;;;;0.85;0.47;;;;;;;24.18;27.43;99144.66;5026494;28;20668;-92
2021/05/21 08:59:22;;;;;;;6.18;0.90;;;;;;;24.14;27.62;99139.81;5034508;28;20288;-89
2021/05/21 09:01:55;;;;;;;2.70;0.60;;;;;;;24.21;27.79;99146.75;5017845;28;20296;-92
2021/05/21 09:04:22;;;;;;;6.95;0.73;;;;;;;24.22;27.48;99134.66;5017717;28;20229;-92
2021/05/21 09:06:49;;;;;;;1.38;0.60;;;;;;;24.30;27.33;99131.16;5034713;28;20296;-85
2021/05/21 09:09:16;;;;;;;0.70;0.40;;;;;;;24.59;26.42;99131.28;5016192;28;20579;-92
2021/05/21 09:11:43;;;;;;;0.45;0.40;;;;;;;24.80;26.38;99126.75;5014732;28;20719;-86
2021/05/21 09:14:21;;;;;;;4.60;2.58;;;;;;;24.94;27.10;99130.16;5030456;28;20233;-92
2021/05/21 09:16:49;;;;;;;3.33;0.75;;;;;;;25.21;27.14;99117.97;5018551;28;20234;-85
2021/05/21 09:19:20;;;;;;;1.00;0.57;;;;;;;25.62;26.87;99122.00;5001575;28;20223;-92
2021/05/21 09:22:06;;;;;;;2.95;0.60;;;;;;;26.02;26.00;99119.69;5014612;28;20460;-93
2021/05/21 09:24:47;;;;;;;0.80;0.73;;;;;;;26.45;24.23;99106.44;5033733;28;20621;-92
2021/05/21 09:27:16;;;;;;;2.05;0.80;;;;;;;27.05;23.91;99094.88;5034487;28;20230;-92
2021/05/21 09:29:50;;;;;;;1.30;0.60;;;;;;;27.17;23.34;99092.13;4998779;28;20232;-83
2021/05/21 09:32:18;;;;;;;4.57;0.93;;;;;;;27.75;22.36;99101.13;5013907;28;20252;-83
2021/05/21 09:34:57;;;;;;;1.75;0.60;;;;;;;28.09;22.11;99097.00;5033203;28;20233;-80
2021/05/21 09:37:25;;;;;;;2.08;0.52;;;;;;;28.71;21.60;99098.47;5017579;28;20653;-80
2021/05/21 09:40:27;;;;;;;1.20;0.60;;;;;;;28.76;20.25;99090.75;5014388;28;20309;-81
2021/05/21 09:42:55;;;;;;;14.60;1.48;;;;;;;28.55;21.82;99095.66;4999001;28;20240;-80
2021/05/21 09:45:33;;;;;;;3.42;0.73;;;;;;;28.89;21.19;99089.50;5033603;28;20228;-80
2021/05/21 09:48:05;;;;;;;40.65;3.05;;;;;;;28.68;21.24;99085.38;5034323;28;20236;-79
2021/05/21 09:50:53;;;;;;;46.70;2.75;;;;;;;29.09;20.52;99084.91;5013493;28;20222;-83
2021/05/21 09:53:21;;;;;;;21.77;1.70;;;;;;;28.86;21.56;99087.47;5013458;28;20222;-79
2021/05/21 09:55:55;;;;;;;5.57;1.05;;;;;;;28.85;20.97;99074.84;5015768;28;20277;-81
2021/05/21 09:58:43;;;;;;;45.88;3.05;;;;;;;28.92;20.90;99071.47;5016980;28;20258;-83
2021/05/21 10:01:17;;;;;;;26.75;2.90;;;;;;;28.94;20.96;99071.09;5018464;28;20238;-83
2021/05/21 10:03:45;;;;;;;4.97;0.80;;;;;;;29.06;21.07;99076.56;5017791;28;20234;-84
2021/05/21 10:06:13;;;;;;;10.45;1.10;;;;;;;29.00;21.20;99066.94;5016924;28;20243;-80
2021/05/21 10:08:41;;;;;;;1.98;0.55;;;;;;;28.81;21.62;99051.91;4996911;28;20508;-84
2021/05/21 10:11:09;;;;;;;0.60;0.60;;;;;;;28.64;21.17;99052.22;4981576;28;20318;-81
2021/05/21 10:13:37;;;;;;;0.65;0.52;;;;;;;28.37;22.17;99055.75;5001045;28;20226;-82
2021/05/21 10:16:04;;;;;;;2.15;0.50;;;;;;;28.31;20.87;99063.50;5016407;28;20237;-80
2021/05/21 10:18:34;;;;;;;0.40;0.40;;;;;;;28.35;21.17;99069.09;4998975;28;20329;-83
2021/05/21 10:21:01;;;;;;;0.73;0.52;;;;;;;28.22;21.14;99054.56;4997392;28;20286;-83
2021/05/21 10:23:36;;;;;;;1.38;0.60;;;;;;;28.28;20.59;99055.09;4998393;28;20259;-79
2021/05/21 10:26:12;;;;;;;0.45;0.40;;;;;;;28.03;21.69;99043.38;5016479;28;20235;-82
2021/05/21 10:28:42;;;;;;;1.05;0.50;;;;;;;28.18;21.23;99045.41;5015049;28;20237;-83
2021/05/21 10:31:10;;;;;;;0.50;0.50;;;;;;;28.01;22.28;99057.47;4981034;28;20597;-80
2021/05/21 10:33:36;;;;;;;2.05;0.70;;;;;;;27.88;24.17;99042.13;4997887;28;20232;-80
2021/05/21 10:36:22;;;;;;;1.50;0.60;;;;;;;27.83;23.53;99050.63;5017205;28;20567;-81
2021/05/21 10:39:18;;;;;;;2.08;0.57;;;;;;;27.65;24.31;99032.78;5016753;28;20663;-83
2021/05/21 10:42:20;;;;;;;1.27;0.70;;;;;;;27.58;23.60;99043.56;5016246;28;20245;-83
2021/05/21 10:45:14;;;;;;;4.75;1.02;;;;;;;27.86;23.40;99049.13;5003048;28;20237;-81
2021/05/21 10:47:45;;;;;;;2.65;0.70;;;;;;;28.08;23.19;99039.56;5000043;28;20254;-82
2021/05/21 10:50:17;;;;;;;0.70;0.70;;;;;;;28.48;22.90;99048.59;4991716;28;20541;-81
2021/05/21 10:52:48;;;;;;;3.10;0.80;;;;;;;28.62;22.40;99035.22;5016151;28;20245;-80
2021/05/21 10:55:15;;;;;;;0.88;0.60;;;;;;;28.93;21.91;99037.22;5016715;28;20226;-81
2021/05/21 10:57:57;;;;;;;2.85;0.60;;;;;;;29.53;21.06;99032.41;5006942;28;20280;-82
2021/05/21 11:00:24;;;;;;;2.15;0.50;;;;;;;29.49;20.97;99031.53;5035460;28;20241;-82
2021/05/21 11:02:53;;;;;;;1.35;0.70;;;;;;;29.63;20.93;99037.38;5019736;28;20284;-80
2021/05/21 11:05:23;;;;;;;2.85;0.80;;;;;;;29.67;20.63;99025.25;5037287;28;20234;-79
2021/05/21 11:08:00;;;;;;;1.20;0.60;;;;;;;29.96;20.58;99012.06;5019284;28;20649;-80
2021/05/21 11:10:49;;;;;;;2.88;0.85;;;;;;;30.53;20.44;99014.03;5019428;28;20225;-83
2021/05/21 11:13:17;;;;;;;2.83;0.60;;;;;;;30.76;19.87;99006.56;5019297;28;20238;-82
2021/05/21 11:15:49;;;;;;;6.53;0.75;;;;;;;30.40;19.85;98996.00;5018999;28;20309;-82
2021/05/21 11:18:16;;;;;;;9.13;1.20;;;;;;;30.87;19.22;98995.69;5000387;28;20689;-83
2021/05/21 11:20:59;;;;;;;5.63;1.20;;;;;;;31.11;18.93;98997.31;5015264;28;20681;-79
2021/05/21 11:23:28;;;;;;;1.20;0.52;;;;;;;31.41;17.95;98984.31;5016259;28;20326;-80
2021/05/21 11:26:18;;;;;;;1.27;0.52;;;;;;;31.39;17.47;98981.94;5002263;28;20285;-81
2021/05/21 11:28:49;;;;;;;13.65;1.40;;;;;;;31.03;19.58;98983.34;5009206;28;20241;-82
2021/05/21 11:31:17;;;;;;;2.50;0.80;;;;;;;30.47;20.33;98965.78;5030922;28;20527;-81
2021/05/21 11:33:46;;;;;;;24.48;2.33;;;;;;;30.65;20.05;98966.88;5019036;28;20238;-83
2021/05/21 11:36:14;;;;;;;4.18;0.90;;;;;;;30.63;19.99;98974.72;5019009;28;20230;-84
2021/05/21 11:38:42;;;;;;;3.10;0.70;;;;;;;30.91;19.95;98983.50;5019332;28;20546;-84
2021/05/21 11:41:11;;;;;;;2.75;0.82;;;;;;;30.86;19.35;98969.19;5019290;28;20233;-80
2021/05/21 11:43:46;;;;;;;3.60;0.88;;;;;;;31.25;19.26;98961.56;5035575;28;20870;-83
2021/05/21 11:46:19;;;;;;;2.33;1.15;;;;;;;31.01;20.04;98958.03;5019588;28;20724;-80
2021/05/21 11:48:48;;;;;;;1.05;0.85;;;;;;;30.98;19.48;98947.66;5002288;28;20230;-80